McElhattan, Pennsylvania
Current Conditions -  °F | °C
As of 10:54 PM on Thursday 18 Dec 2014 (Local Time) from KIPT Reporting Station
Overcast Overcast  
Wind Chill: 27°   Ceiling: 3300
Heat Index: 34°   Visibility: 10mi
Dew Point: 25°   Wind: 8mph
Humidity: 70%   Direction: 260°W
Pressure: 30.04"   Gusts: NA
Location:  41.16°N, 77.36°W
Report Text: KIPT 190354Z AUTO 26007KT 10SM OVC033 01/M04 A3004 RMK AO2 SLP177 T00111039
Loading
Personal Weather Stations






























Interactive Weather Map New forecast layout! Learn more

10-Day Weather Forecast

Advertisements
Track Severe Weather on mobile